sensor_id;sensor_type;location;lat;lon;timestamp;P1;durP1;ratioP1;P2;durP2;ratioP2
49223;SDS011;35050;51.316;5.994;2022-08-19T00:00:04;6.15;;;5.65;;
49223;SDS011;35050;51.316;5.994;2022-08-19T00:02:32;6.38;;;5.88;;
49223;SDS011;35050;51.316;5.994;2022-08-19T00:04:58;7.97;;;6.20;;
49223;SDS011;35050;51.316;5.994;2022-08-19T00:07:24;6.45;;;5.85;;
49223;SDS011;35050;51.316;5.994;2022-08-19T00:09:50;6.60;;;6.00;;
49223;SDS011;35050;51.316;5.994;2022-08-19T00:12:15;6.72;;;6.13;;
49223;SDS011;35050;51.316;5.994;2022-08-19T00:14:41;6.80;;;6.20;;
49223;SDS011;35050;51.316;5.994;2022-08-19T00:17:07;6.10;;;5.57;;
49223;SDS011;35050;51.316;5.994;2022-08-19T00:19:34;5.93;;;5.43;;
49223;SDS011;35050;51.316;5.994;2022-08-19T00:22:00;6.80;;;6.20;;
49223;SDS011;35050;51.316;5.994;2022-08-19T00:24:27;6.28;;;5.63;;
49223;SDS011;35050;51.316;5.994;2022-08-19T00:26:54;6.50;;;5.93;;
49223;SDS011;35050;51.316;5.994;2022-08-19T00:29:21;6.32;;;5.82;;
49223;SDS011;35050;51.316;5.994;2022-08-19T00:31:49;6.82;;;6.22;;
49223;SDS011;35050;51.316;5.994;2022-08-19T00:34:17;9.52;;;5.88;;
49223;SDS011;35050;51.316;5.994;2022-08-19T00:36:44;7.38;;;6.78;;
49223;SDS011;35050;51.316;5.994;2022-08-19T00:39:10;7.30;;;6.70;;
49223;SDS011;35050;51.316;5.994;2022-08-19T00:41:36;6.53;;;5.93;;
49223;SDS011;35050;51.316;5.994;2022-08-19T00:46:49;6.80;;;6.20;;
49223;SDS011;35050;51.316;5.994;2022-08-19T00:51:52;7.05;;;6.45;;
49223;SDS011;35050;51.316;5.994;2022-08-19T00:54:21;7.65;;;6.95;;
49223;SDS011;35050;51.316;5.994;2022-08-19T00:56:48;7.03;;;6.43;;
49223;SDS011;35050;51.316;5.994;2022-08-19T00:59:15;6.97;;;6.38;;
49223;SDS011;35050;51.316;5.994;2022-08-19T01:01:43;6.85;;;6.25;;
49223;SDS011;35050;51.316;5.994;2022-08-19T01:04:10;6.70;;;6.13;;
49223;SDS011;35050;51.316;5.994;2022-08-19T01:06:36;6.63;;;6.03;;
49223;SDS011;35050;51.316;5.994;2022-08-19T01:09:03;7.25;;;6.65;;
49223;SDS011;35050;51.316;5.994;2022-08-19T01:11:30;7.18;;;6.57;;
49223;SDS011;35050;51.316;5.994;2022-08-19T01:13:57;6.90;;;6.32;;
49223;SDS011;35050;51.316;5.994;2022-08-19T01:16:25;7.00;;;6.30;;
49223;SDS011;35050;51.316;5.994;2022-08-19T01:18:54;6.88;;;6.32;;
49223;SDS011;35050;51.316;5.994;2022-08-19T01:21:26;7.70;;;6.90;;
49223;SDS011;35050;51.316;5.994;2022-08-19T01:23:59;6.65;;;6.05;;
49223;SDS011;35050;51.316;5.994;2022-08-19T01:26:25;6.93;;;6.43;;
49223;SDS011;35050;51.316;5.994;2022-08-19T01:28:53;7.13;;;6.53;;
49223;SDS011;35050;51.316;5.994;2022-08-19T01:31:21;6.30;;;5.80;;
49223;SDS011;35050;51.316;5.994;2022-08-19T01:33:49;6.68;;;6.10;;
49223;SDS011;35050;51.316;5.994;2022-08-19T01:36:22;7.03;;;6.43;;
49223;SDS011;35050;51.316;5.994;2022-08-19T01:39:13;6.68;;;6.18;;
49223;SDS011;35050;51.316;5.994;2022-08-19T01:41:44;7.28;;;6.03;;
49223;SDS011;35050;51.316;5.994;2022-08-19T01:44:10;6.82;;;5.75;;
49223;SDS011;35050;51.316;5.994;2022-08-19T01:46:36;7.63;;;6.13;;
49223;SDS011;35050;51.316;5.994;2022-08-19T01:49:03;6.28;;;5.68;;
49223;SDS011;35050;51.316;5.994;2022-08-19T01:51:30;5.95;;;5.45;;
49223;SDS011;35050;51.316;5.994;2022-08-19T01:53:56;6.75;;;6.03;;
49223;SDS011;35050;51.316;5.994;2022-08-19T01:56:22;6.38;;;5.80;;
49223;SDS011;35050;51.316;5.994;2022-08-19T01:58:49;6.43;;;5.93;;
49223;SDS011;35050;51.316;5.994;2022-08-19T02:01:26;6.65;;;6.15;;
49223;SDS011;35050;51.316;5.994;2022-08-19T02:03:53;7.05;;;6.43;;
49223;SDS011;35050;51.316;5.994;2022-08-19T02:06:19;6.82;;;6.22;;
49223;SDS011;35050;51.316;5.994;2022-08-19T02:08:45;6.80;;;6.25;;
49223;SDS011;35050;51.316;5.994;2022-08-19T02:11:18;6.72;;;6.13;;
49223;SDS011;35050;51.316;5.994;2022-08-19T02:13:46;7.05;;;6.40;;
49223;SDS011;35050;51.316;5.994;2022-08-19T02:16:11;6.80;;;6.20;;
49223;SDS011;35050;51.316;5.994;2022-08-19T02:18:37;6.68;;;6.07;;
49223;SDS011;35050;51.316;5.994;2022-08-19T02:21:03;7.10;;;6.40;;
49223;SDS011;35050;51.316;5.994;2022-08-19T02:23:28;7.10;;;6.50;;
49223;SDS011;35050;51.316;5.994;2022-08-19T02:25:54;7.05;;;6.45;;
49223;SDS011;35050;51.316;5.994;2022-08-19T02:28:20;6.35;;;5.85;;
49223;SDS011;35050;51.316;5.994;2022-08-19T02:30:46;6.70;;;6.10;;
49223;SDS011;35050;51.316;5.994;2022-08-19T02:33:12;7.20;;;6.60;;
49223;SDS011;35050;51.316;5.994;2022-08-19T02:35:42;6.90;;;6.20;;
49223;SDS011;35050;51.316;5.994;2022-08-19T02:38:09;7.32;;;6.68;;
49223;SDS011;35050;51.316;5.994;2022-08-19T02:40:51;6.70;;;6.10;;
49223;SDS011;35050;51.316;5.994;2022-08-19T02:43:20;6.70;;;6.10;;
49223;SDS011;35050;51.316;5.994;2022-08-19T02:45:46;6.25;;;5.75;;
49223;SDS011;35050;51.316;5.994;2022-08-19T02:48:14;6.85;;;6.25;;
49223;SDS011;35050;51.316;5.994;2022-08-19T02:50:42;7.10;;;6.50;;
49223;SDS011;35050;51.316;5.994;2022-08-19T02:53:08;6.07;;;5.57;;
49223;SDS011;35050;51.316;5.994;2022-08-19T02:55:34;6.32;;;5.82;;
49223;SDS011;35050;51.316;5.994;2022-08-19T02:58:00;6.65;;;5.60;;
49223;SDS011;35050;51.316;5.994;2022-08-19T03:00:26;6.57;;;5.97;;
49223;SDS011;35050;51.316;5.994;2022-08-19T03:02:52;6.53;;;5.93;;
49223;SDS011;35050;51.316;5.994;2022-08-19T03:05:18;6.38;;;5.78;;
49223;SDS011;35050;51.316;5.994;2022-08-19T03:07:44;6.78;;;6.18;;
49223;SDS011;35050;51.316;5.994;2022-08-19T03:10:11;6.68;;;6.07;;
49223;SDS011;35050;51.316;5.994;2022-08-19T03:12:38;7.13;;;6.53;;
49223;SDS011;35050;51.316;5.994;2022-08-19T03:15:05;7.30;;;6.60;;
49223;SDS011;35050;51.316;5.994;2022-08-19T03:17:32;7.25;;;6.65;;
49223;SDS011;35050;51.316;5.994;2022-08-19T03:19:58;6.75;;;6.20;;
49223;SDS011;35050;51.316;5.994;2022-08-19T03:22:24;6.82;;;6.22;;
49223;SDS011;35050;51.316;5.994;2022-08-19T03:24:50;6.75;;;6.15;;
49223;SDS011;35050;51.316;5.994;2022-08-19T03:27:16;7.07;;;6.47;;
49223;SDS011;35050;51.316;5.994;2022-08-19T03:29:42;7.32;;;6.72;;
49223;SDS011;35050;51.316;5.994;2022-08-19T03:32:08;6.25;;;5.75;;
49223;SDS011;35050;51.316;5.994;2022-08-19T03:34:36;6.57;;;5.97;;
49223;SDS011;35050;51.316;5.994;2022-08-19T03:37:04;6.03;;;5.53;;
49223;SDS011;35050;51.316;5.994;2022-08-19T03:39:32;6.75;;;6.15;;
49223;SDS011;35050;51.316;5.994;2022-08-19T03:41:58;6.60;;;6.00;;
49223;SDS011;35050;51.316;5.994;2022-08-19T03:44:27;6.38;;;5.85;;
49223;SDS011;35050;51.316;5.994;2022-08-19T03:46:55;6.68;;;6.07;;
49223;SDS011;35050;51.316;5.994;2022-08-19T03:49:22;7.10;;;6.50;;
49223;SDS011;35050;51.316;5.994;2022-08-19T03:51:50;6.95;;;6.35;;
49223;SDS011;35050;51.316;5.994;2022-08-19T03:54:19;6.90;;;6.30;;
49223;SDS011;35050;51.316;5.994;2022-08-19T03:56:48;6.65;;;6.05;;
49223;SDS011;35050;51.316;5.994;2022-08-19T03:59:23;6.40;;;5.90;;
49223;SDS011;35050;51.316;5.994;2022-08-19T04:01:55;6.28;;;5.78;;
49223;SDS011;35050;51.316;5.994;2022-08-19T04:04:22;6.65;;;6.05;;
49223;SDS011;35050;51.316;5.994;2022-08-19T04:06:48;6.10;;;5.60;;
49223;SDS011;35050;51.316;5.994;2022-08-19T04:09:16;6.30;;;5.70;;
49223;SDS011;35050;51.316;5.994;2022-08-19T04:11:44;8.10;;;6.55;;
49223;SDS011;35050;51.316;5.994;2022-08-19T04:14:13;6.70;;;6.10;;
49223;SDS011;35050;51.316;5.994;2022-08-19T04:16:40;6.10;;;5.60;;
49223;SDS011;35050;51.316;5.994;2022-08-19T04:19:08;6.28;;;5.78;;
49223;SDS011;35050;51.316;5.994;2022-08-19T04:21:34;6.22;;;5.72;;
49223;SDS011;35050;51.316;5.994;2022-08-19T04:24:00;6.10;;;5.60;;
49223;SDS011;35050;51.316;5.994;2022-08-19T04:26:27;6.90;;;6.30;;
49223;SDS011;35050;51.316;5.994;2022-08-19T04:28:58;6.50;;;6.00;;
49223;SDS011;35050;51.316;5.994;2022-08-19T04:31:30;7.43;;;6.72;;
49223;SDS011;35050;51.316;5.994;2022-08-19T04:34:01;7.55;;;6.85;;
49223;SDS011;35050;51.316;5.994;2022-08-19T04:36:34;7.47;;;6.80;;
49223;SDS011;35050;51.316;5.994;2022-08-19T04:39:03;7.75;;;7.05;;
49223;SDS011;35050;51.316;5.994;2022-08-19T04:41:30;7.03;;;6.43;;
49223;SDS011;35050;51.316;5.994;2022-08-19T04:44:15;6.68;;;6.07;;
49223;SDS011;35050;51.316;5.994;2022-08-19T04:46:43;6.70;;;6.10;;
49223;SDS011;35050;51.316;5.994;2022-08-19T04:49:09;6.80;;;6.20;;
49223;SDS011;35050;51.316;5.994;2022-08-19T04:51:36;6.95;;;6.28;;
49223;SDS011;35050;51.316;5.994;2022-08-19T04:54:02;7.63;;;6.93;;
49223;SDS011;35050;51.316;5.994;2022-08-19T04:56:28;7.35;;;6.65;;
49223;SDS011;35050;51.316;5.994;2022-08-19T04:58:54;7.70;;;7.05;;
49223;SDS011;35050;51.316;5.994;2022-08-19T05:01:26;8.55;;;7.78;;
49223;SDS011;35050;51.316;5.994;2022-08-19T05:03:57;7.72;;;6.93;;
49223;SDS011;35050;51.316;5.994;2022-08-19T05:06:23;7.47;;;6.78;;
49223;SDS011;35050;51.316;5.994;2022-08-19T05:08:50;7.22;;;6.53;;
49223;SDS011;35050;51.316;5.994;2022-08-19T05:11:18;7.53;;;6.72;;
49223;SDS011;35050;51.316;5.994;2022-08-19T05:13:46;7.53;;;6.82;;
49223;SDS011;35050;51.316;5.994;2022-08-19T05:16:13;8.23;;;7.47;;
49223;SDS011;35050;51.316;5.994;2022-08-19T05:18:41;7.85;;;7.15;;
49223;SDS011;35050;51.316;5.994;2022-08-19T05:21:25;7.75;;;6.95;;
49223;SDS011;35050;51.316;5.994;2022-08-19T05:24:11;7.38;;;6.43;;
49223;SDS011;35050;51.316;5.994;2022-08-19T05:26:41;7.60;;;6.90;;
49223;SDS011;35050;51.316;5.994;2022-08-19T05:29:11;7.38;;;6.60;;
49223;SDS011;35050;51.316;5.994;2022-08-19T05:31:38;6.72;;;6.13;;
49223;SDS011;35050;51.316;5.994;2022-08-19T05:34:04;6.88;;;6.28;;
49223;SDS011;35050;51.316;5.994;2022-08-19T05:36:34;7.47;;;6.78;;
49223;SDS011;35050;51.316;5.994;2022-08-19T05:39:07;7.07;;;6.38;;
49223;SDS011;35050;51.316;5.994;2022-08-19T05:41:33;6.93;;;6.32;;
49223;SDS011;35050;51.316;5.994;2022-08-19T05:44:03;6.82;;;6.22;;
49223;SDS011;35050;51.316;5.994;2022-08-19T05:46:34;6.93;;;6.32;;
49223;SDS011;35050;51.316;5.994;2022-08-19T05:49:02;6.88;;;6.28;;
49223;SDS011;35050;51.316;5.994;2022-08-19T05:51:32;7.20;;;6.60;;
49223;SDS011;35050;51.316;5.994;2022-08-19T05:54:00;8.43;;;7.63;;
49223;SDS011;35050;51.316;5.994;2022-08-19T05:56:27;8.13;;;7.35;;
49223;SDS011;35050;51.316;5.994;2022-08-19T05:58:52;12.82;;;11.55;;
49223;SDS011;35050;51.316;5.994;2022-08-19T06:01:19;11.77;;;10.57;;
49223;SDS011;35050;51.316;5.994;2022-08-19T06:03:45;10.65;;;9.63;;
49223;SDS011;35050;51.316;5.994;2022-08-19T06:06:13;9.90;;;8.85;;
49223;SDS011;35050;51.316;5.994;2022-08-19T06:08:40;10.60;;;9.50;;
49223;SDS011;35050;51.316;5.994;2022-08-19T06:13:46;9.93;;;8.93;;
49223;SDS011;35050;51.316;5.994;2022-08-19T06:16:14;9.85;;;8.93;;
49223;SDS011;35050;51.316;5.994;2022-08-19T06:18:47;11.45;;;8.98;;
49223;SDS011;35050;51.316;5.994;2022-08-19T06:21:22;12.82;;;11.50;;
49223;SDS011;35050;51.316;5.994;2022-08-19T06:23:49;15.02;;;13.43;;
49223;SDS011;35050;51.316;5.994;2022-08-19T06:26:17;16.48;;;14.65;;
49223;SDS011;35050;51.316;5.994;2022-08-19T06:28:44;15.27;;;13.45;;
49223;SDS011;35050;51.316;5.994;2022-08-19T06:31:14;15.48;;;13.68;;
49223;SDS011;35050;51.316;5.994;2022-08-19T06:33:41;16.80;;;13.45;;
49223;SDS011;35050;51.316;5.994;2022-08-19T06:36:07;14.98;;;12.68;;
49223;SDS011;35050;51.316;5.994;2022-08-19T06:38:41;15.05;;;13.00;;
49223;SDS011;35050;51.316;5.994;2022-08-19T06:41:06;19.10;;;16.63;;
49223;SDS011;35050;51.316;5.994;2022-08-19T06:43:33;13.73;;;12.18;;
49223;SDS011;35050;51.316;5.994;2022-08-19T06:45:58;11.25;;;9.98;;
49223;SDS011;35050;51.316;5.994;2022-08-19T06:48:25;13.80;;;11.32;;
49223;SDS011;35050;51.316;5.994;2022-08-19T06:50:51;16.05;;;14.15;;
49223;SDS011;35050;51.316;5.994;2022-08-19T06:53:17;13.65;;;12.25;;
49223;SDS011;35050;51.316;5.994;2022-08-19T06:55:44;12.73;;;11.40;;
49223;SDS011;35050;51.316;5.994;2022-08-19T06:58:10;15.02;;;13.38;;
49223;SDS011;35050;51.316;5.994;2022-08-19T07:00:36;13.88;;;11.98;;
49223;SDS011;35050;51.316;5.994;2022-08-19T07:03:02;14.02;;;12.40;;
49223;SDS011;35050;51.316;5.994;2022-08-19T07:05:28;15.20;;;12.95;;
49223;SDS011;35050;51.316;5.994;2022-08-19T07:07:53;17.23;;;14.20;;
49223;SDS011;35050;51.316;5.994;2022-08-19T07:10:19;20.67;;;15.93;;
49223;SDS011;35050;51.316;5.994;2022-08-19T07:12:45;18.02;;;14.50;;
49223;SDS011;35050;51.316;5.994;2022-08-19T07:15:12;18.15;;;15.23;;
49223;SDS011;35050;51.316;5.994;2022-08-19T07:17:38;14.48;;;12.65;;
49223;SDS011;35050;51.316;5.994;2022-08-19T07:20:05;13.38;;;11.90;;
49223;SDS011;35050;51.316;5.994;2022-08-19T07:22:32;14.48;;;12.55;;
49223;SDS011;35050;51.316;5.994;2022-08-19T07:24:59;16.95;;;15.15;;
49223;SDS011;35050;51.316;5.994;2022-08-19T07:27:25;21.50;;;17.38;;
49223;SDS011;35050;51.316;5.994;2022-08-19T07:29:53;17.80;;;15.27;;
49223;SDS011;35050;51.316;5.994;2022-08-19T07:32:18;16.00;;;13.95;;
49223;SDS011;35050;51.316;5.994;2022-08-19T07:34:44;14.15;;;12.32;;
49223;SDS011;35050;51.316;5.994;2022-08-19T07:37:10;13.00;;;11.60;;
49223;SDS011;35050;51.316;5.994;2022-08-19T07:39:36;12.32;;;10.75;;
49223;SDS011;35050;51.316;5.994;2022-08-19T07:42:04;13.20;;;11.07;;
49223;SDS011;35050;51.316;5.994;2022-08-19T07:44:33;17.67;;;14.00;;
49223;SDS011;35050;51.316;5.994;2022-08-19T07:46:59;19.27;;;15.45;;
49223;SDS011;35050;51.316;5.994;2022-08-19T07:49:25;20.25;;;16.75;;
49223;SDS011;35050;51.316;5.994;2022-08-19T07:52:04;20.88;;;14.80;;
49223;SDS011;35050;51.316;5.994;2022-08-19T07:54:32;21.67;;;17.35;;
49223;SDS011;35050;51.316;5.994;2022-08-19T07:57:01;14.07;;;12.48;;
49223;SDS011;35050;51.316;5.994;2022-08-19T07:59:27;17.60;;;14.07;;
49223;SDS011;35050;51.316;5.994;2022-08-19T08:01:53;16.63;;;13.18;;
49223;SDS011;35050;51.316;5.994;2022-08-19T08:04:20;14.75;;;11.90;;
49223;SDS011;35050;51.316;5.994;2022-08-19T08:07:05;16.90;;;13.20;;
49223;SDS011;35050;51.316;5.994;2022-08-19T08:09:51;13.40;;;11.27;;
49223;SDS011;35050;51.316;5.994;2022-08-19T08:12:22;12.85;;;9.73;;
49223;SDS011;35050;51.316;5.994;2022-08-19T08:15:15;14.70;;;10.98;;
49223;SDS011;35050;51.316;5.994;2022-08-19T08:17:45;10.90;;;9.25;;
49223;SDS011;35050;51.316;5.994;2022-08-19T08:20:11;17.10;;;10.80;;
49223;SDS011;35050;51.316;5.994;2022-08-19T08:22:41;10.45;;;8.52;;
49223;SDS011;35050;51.316;5.994;2022-08-19T08:25:27;13.45;;;11.57;;
49223;SDS011;35050;51.316;5.994;2022-08-19T08:27:53;10.40;;;9.30;;
49223;SDS011;35050;51.316;5.994;2022-08-19T08:30:20;10.50;;;9.40;;
49223;SDS011;35050;51.316;5.994;2022-08-19T08:32:47;15.23;;;12.68;;
49223;SDS011;35050;51.316;5.994;2022-08-19T08:35:14;11.13;;;9.30;;
49223;SDS011;35050;51.316;5.994;2022-08-19T08:37:42;10.93;;;8.40;;
49223;SDS011;35050;51.316;5.994;2022-08-19T08:40:19;14.63;;;11.15;;
49223;SDS011;35050;51.316;5.994;2022-08-19T08:43:09;12.85;;;10.35;;
49223;SDS011;35050;51.316;5.994;2022-08-19T08:46:09;12.45;;;9.02;;
49223;SDS011;35050;51.316;5.994;2022-08-19T08:51:40;12.52;;;10.45;;
49223;SDS011;35050;51.316;5.994;2022-08-19T08:54:11;10.07;;;8.55;;
49223;SDS011;35050;51.316;5.994;2022-08-19T08:56:40;10.63;;;9.32;;
49223;SDS011;35050;51.316;5.994;2022-08-19T09:01:48;10.13;;;8.63;;
49223;SDS011;35050;51.316;5.994;2022-08-19T09:04:14;11.30;;;9.27;;
49223;SDS011;35050;51.316;5.994;2022-08-19T09:07:08;8.95;;;7.70;;
49223;SDS011;35050;51.316;5.994;2022-08-19T09:09:49;8.98;;;7.72;;
49223;SDS011;35050;51.316;5.994;2022-08-19T09:17:24;11.23;;;8.93;;
49223;SDS011;35050;51.316;5.994;2022-08-19T09:20:15;9.27;;;8.13;;
49223;SDS011;35050;51.316;5.994;2022-08-19T09:22:45;9.88;;;7.97;;
49223;SDS011;35050;51.316;5.994;2022-08-19T09:25:17;11.93;;;8.98;;
49223;SDS011;35050;51.316;5.994;2022-08-19T09:27:47;6.57;;;5.88;;
49223;SDS011;35050;51.316;5.994;2022-08-19T09:30:15;7.47;;;5.72;;
49223;SDS011;35050;51.316;5.994;2022-08-19T09:32:44;6.15;;;4.95;;
49223;SDS011;35050;51.316;5.994;2022-08-19T09:35:10;6.82;;;5.97;;
49223;SDS011;35050;51.316;5.994;2022-08-19T09:37:37;7.72;;;6.45;;
49223;SDS011;35050;51.316;5.994;2022-08-19T09:40:03;7.53;;;5.70;;
49223;SDS011;35050;51.316;5.994;2022-08-19T09:42:29;6.22;;;4.93;;
49223;SDS011;35050;51.316;5.994;2022-08-19T09:44:55;6.28;;;5.45;;
49223;SDS011;35050;51.316;5.994;2022-08-19T09:47:21;5.75;;;4.65;;
49223;SDS011;35050;51.316;5.994;2022-08-19T09:49:46;4.90;;;4.40;;
49223;SDS011;35050;51.316;5.994;2022-08-19T09:52:13;7.25;;;4.22;;
49223;SDS011;35050;51.316;5.994;2022-08-19T09:54:40;4.13;;;3.60;;
49223;SDS011;35050;51.316;5.994;2022-08-19T09:57:06;6.03;;;4.38;;
49223;SDS011;35050;51.316;5.994;2022-08-19T09:59:32;6.25;;;4.85;;
49223;SDS011;35050;51.316;5.994;2022-08-19T10:01:58;5.43;;;3.85;;
49223;SDS011;35050;51.316;5.994;2022-08-19T10:04:23;4.35;;;3.95;;
49223;SDS011;35050;51.316;5.994;2022-08-19T10:07:09;4.45;;;3.88;;
49223;SDS011;35050;51.316;5.994;2022-08-19T10:09:35;5.45;;;4.68;;
49223;SDS011;35050;51.316;5.994;2022-08-19T10:12:01;4.70;;;4.30;;
49223;SDS011;35050;51.316;5.994;2022-08-19T10:14:28;6.35;;;5.03;;
49223;SDS011;35050;51.316;5.994;2022-08-19T10:16:54;6.35;;;5.70;;
49223;SDS011;35050;51.316;5.994;2022-08-19T10:19:21;6.18;;;4.65;;
49223;SDS011;35050;51.316;5.994;2022-08-19T10:21:47;6.68;;;4.45;;
49223;SDS011;35050;51.316;5.994;2022-08-19T10:24:12;4.32;;;3.85;;
49223;SDS011;35050;51.316;5.994;2022-08-19T10:26:39;4.50;;;3.45;;
49223;SDS011;35050;51.316;5.994;2022-08-19T10:29:09;8.43;;;5.03;;
49223;SDS011;35050;51.316;5.994;2022-08-19T10:31:36;5.22;;;4.40;;
49223;SDS011;35050;51.316;5.994;2022-08-19T10:34:02;6.45;;;4.53;;
49223;SDS011;35050;51.316;5.994;2022-08-19T10:36:30;5.75;;;4.38;;
49223;SDS011;35050;51.316;5.994;2022-08-19T10:38:59;6.03;;;4.90;;
49223;SDS011;35050;51.316;5.994;2022-08-19T10:41:28;5.20;;;3.88;;
49223;SDS011;35050;51.316;5.994;2022-08-19T10:43:56;3.88;;;3.47;;
49223;SDS011;35050;51.316;5.994;2022-08-19T10:46:24;4.45;;;3.90;;
49223;SDS011;35050;51.316;5.994;2022-08-19T10:48:51;5.53;;;4.20;;
49223;SDS011;35050;51.316;5.994;2022-08-19T10:51:18;6.18;;;4.15;;
49223;SDS011;35050;51.316;5.994;2022-08-19T10:54:03;5.00;;;4.43;;
49223;SDS011;35050;51.316;5.994;2022-08-19T10:56:29;6.90;;;4.20;;
49223;SDS011;35050;51.316;5.994;2022-08-19T10:59:15;3.88;;;3.25;;
49223;SDS011;35050;51.316;5.994;2022-08-19T11:01:43;4.22;;;3.28;;
49223;SDS011;35050;51.316;5.994;2022-08-19T11:04:10;6.43;;;4.05;;
49223;SDS011;35050;51.316;5.994;2022-08-19T11:06:38;5.25;;;3.90;;
49223;SDS011;35050;51.316;5.994;2022-08-19T11:09:06;3.15;;;2.72;;
49223;SDS011;35050;51.316;5.994;2022-08-19T11:11:33;4.20;;;3.05;;
49223;SDS011;35050;51.316;5.994;2022-08-19T11:14:05;4.95;;;3.40;;
49223;SDS011;35050;51.316;5.994;2022-08-19T11:16:41;4.28;;;3.78;;
49223;SDS011;35050;51.316;5.994;2022-08-19T11:19:08;4.22;;;3.22;;
49223;SDS011;35050;51.316;5.994;2022-08-19T11:21:36;4.00;;;2.90;;
49223;SDS011;35050;51.316;5.994;2022-08-19T11:24:09;3.17;;;2.78;;
49223;SDS011;35050;51.316;5.994;2022-08-19T11:26:36;3.33;;;2.70;;
49223;SDS011;35050;51.316;5.994;2022-08-19T11:29:04;2.80;;;2.50;;
49223;SDS011;35050;51.316;5.994;2022-08-19T11:31:32;3.00;;;2.55;;
49223;SDS011;35050;51.316;5.994;2022-08-19T11:34:00;2.45;;;2.20;;
49223;SDS011;35050;51.316;5.994;2022-08-19T11:36:29;2.63;;;2.42;;
49223;SDS011;35050;51.316;5.994;2022-08-19T11:38:56;2.30;;;2.10;;
49223;SDS011;35050;51.316;5.994;2022-08-19T11:41:22;4.63;;;2.65;;
49223;SDS011;35050;51.316;5.994;2022-08-19T11:43:49;2.95;;;2.30;;
49223;SDS011;35050;51.316;5.994;2022-08-19T11:46:17;3.38;;;2.70;;
49223;SDS011;35050;51.316;5.994;2022-08-19T11:48:44;3.90;;;2.50;;
49223;SDS011;35050;51.316;5.994;2022-08-19T11:51:11;3.05;;;2.20;;
49223;SDS011;35050;51.316;5.994;2022-08-19T11:53:38;3.47;;;2.30;;
49223;SDS011;35050;51.316;5.994;2022-08-19T11:56:05;1.98;;;1.73;;
49223;SDS011;35050;51.316;5.994;2022-08-19T11:58:32;2.85;;;2.03;;
49223;SDS011;35050;51.316;5.994;2022-08-19T12:00:59;3.95;;;2.10;;
49223;SDS011;35050;51.316;5.994;2022-08-19T12:03:24;2.58;;;2.10;;
49223;SDS011;35050;51.316;5.994;2022-08-19T12:05:50;2.92;;;2.50;;
49223;SDS011;35050;51.316;5.994;2022-08-19T12:08:16;2.65;;;2.00;;
49223;SDS011;35050;51.316;5.994;2022-08-19T12:10:43;3.00;;;2.25;;
49223;SDS011;35050;51.316;5.994;2022-08-19T12:13:10;2.67;;;2.15;;
49223;SDS011;35050;51.316;5.994;2022-08-19T12:15:39;2.97;;;2.10;;
49223;SDS011;35050;51.316;5.994;2022-08-19T12:18:10;2.25;;;2.05;;
49223;SDS011;35050;51.316;5.994;2022-08-19T12:20:37;4.72;;;2.42;;
49223;SDS011;35050;51.316;5.994;2022-08-19T12:23:04;2.22;;;2.03;;
49223;SDS011;35050;51.316;5.994;2022-08-19T12:25:31;3.00;;;2.00;;
49223;SDS011;35050;51.316;5.994;2022-08-19T12:27:57;3.15;;;2.30;;
49223;SDS011;35050;51.316;5.994;2022-08-19T12:30:24;1.95;;;1.85;;
49223;SDS011;35050;51.316;5.994;2022-08-19T12:32:50;2.08;;;1.88;;
49223;SDS011;35050;51.316;5.994;2022-08-19T12:35:16;3.58;;;2.38;;
49223;SDS011;35050;51.316;5.994;2022-08-19T12:37:45;4.38;;;1.90;;
49223;SDS011;35050;51.316;5.994;2022-08-19T12:40:11;2.10;;;1.90;;
49223;SDS011;35050;51.316;5.994;2022-08-19T12:42:38;3.05;;;1.88;;
49223;SDS011;35050;51.316;5.994;2022-08-19T12:45:10;2.60;;;2.28;;
49223;SDS011;35050;51.316;5.994;2022-08-19T12:47:38;2.08;;;1.88;;
49223;SDS011;35050;51.316;5.994;2022-08-19T12:50:04;2.10;;;1.90;;
49223;SDS011;35050;51.316;5.994;2022-08-19T12:52:35;5.00;;;2.60;;
49223;SDS011;35050;51.316;5.994;2022-08-19T12:55:07;4.28;;;2.30;;
49223;SDS011;35050;51.316;5.994;2022-08-19T12:57:34;2.20;;;1.80;;
49223;SDS011;35050;51.316;5.994;2022-08-19T13:00:03;1.77;;;1.60;;
49223;SDS011;35050;51.316;5.994;2022-08-19T13:02:33;3.10;;;2.25;;
49223;SDS011;35050;51.316;5.994;2022-08-19T13:05:00;3.22;;;1.80;;
49223;SDS011;35050;51.316;5.994;2022-08-19T13:07:25;3.70;;;2.13;;
49223;SDS011;35050;51.316;5.994;2022-08-19T13:09:51;4.28;;;2.03;;
49223;SDS011;35050;51.316;5.994;2022-08-19T13:12:18;2.88;;;2.10;;
49223;SDS011;35050;51.316;5.994;2022-08-19T13:14:45;2.60;;;2.30;;
49223;SDS011;35050;51.316;5.994;2022-08-19T13:17:14;3.45;;;2.13;;
49223;SDS011;35050;51.316;5.994;2022-08-19T13:19:40;2.88;;;2.33;;
49223;SDS011;35050;51.316;5.994;2022-08-19T13:22:06;4.35;;;2.38;;
49223;SDS011;35050;51.316;5.994;2022-08-19T13:24:32;2.95;;;2.65;;
49223;SDS011;35050;51.316;5.994;2022-08-19T13:26:58;3.15;;;2.85;;
49223;SDS011;35050;51.316;5.994;2022-08-19T13:29:24;3.33;;;3.03;;
49223;SDS011;35050;51.316;5.994;2022-08-19T13:32:09;2.92;;;2.60;;
49223;SDS011;35050;51.316;5.994;2022-08-19T13:34:53;3.38;;;3.03;;
49223;SDS011;35050;51.316;5.994;2022-08-19T13:37:18;3.50;;;3.20;;
49223;SDS011;35050;51.316;5.994;2022-08-19T13:40:04;3.80;;;3.33;;
49223;SDS011;35050;51.316;5.994;2022-08-19T13:42:30;3.15;;;2.85;;
49223;SDS011;35050;51.316;5.994;2022-08-19T13:44:57;3.03;;;2.40;;
49223;SDS011;35050;51.316;5.994;2022-08-19T13:47:23;2.55;;;2.35;;
49223;SDS011;35050;51.316;5.994;2022-08-19T13:49:49;2.78;;;2.47;;
49223;SDS011;35050;51.316;5.994;2022-08-19T13:52:15;2.95;;;2.60;;
49223;SDS011;35050;51.316;5.994;2022-08-19T13:54:40;3.00;;;2.70;;
49223;SDS011;35050;51.316;5.994;2022-08-19T13:57:06;2.75;;;2.30;;
49223;SDS011;35050;51.316;5.994;2022-08-19T13:59:32;3.83;;;3.00;;
49223;SDS011;35050;51.316;5.994;2022-08-19T14:01:58;2.60;;;2.40;;
49223;SDS011;35050;51.316;5.994;2022-08-19T14:04:25;3.20;;;2.90;;
49223;SDS011;35050;51.316;5.994;2022-08-19T14:06:51;3.40;;;3.10;;
49223;SDS011;35050;51.316;5.994;2022-08-19T14:09:17;3.20;;;2.90;;
49223;SDS011;35050;51.316;5.994;2022-08-19T14:11:42;3.80;;;3.22;;
49223;SDS011;35050;51.316;5.994;2022-08-19T14:14:10;3.13;;;2.83;;
49223;SDS011;35050;51.316;5.994;2022-08-19T14:16:36;3.75;;;2.88;;
49223;SDS011;35050;51.316;5.994;2022-08-19T14:19:01;3.25;;;2.95;;
49223;SDS011;35050;51.316;5.994;2022-08-19T14:21:27;3.90;;;3.20;;
49223;SDS011;35050;51.316;5.994;2022-08-19T14:23:53;2.63;;;2.42;;
49223;SDS011;35050;51.316;5.994;2022-08-19T14:26:19;2.58;;;2.20;;
49223;SDS011;35050;51.316;5.994;2022-08-19T14:28:46;2.45;;;2.20;;
49223;SDS011;35050;51.316;5.994;2022-08-19T14:31:12;2.58;;;2.38;;
49223;SDS011;35050;51.316;5.994;2022-08-19T14:33:43;2.67;;;2.28;;
49223;SDS011;35050;51.316;5.994;2022-08-19T14:36:08;2.55;;;2.08;;
49223;SDS011;35050;51.316;5.994;2022-08-19T14:38:34;2.10;;;1.90;;
49223;SDS011;35050;51.316;5.994;2022-08-19T14:41:11;1.80;;;1.70;;
49223;SDS011;35050;51.316;5.994;2022-08-19T14:43:38;1.65;;;1.55;;
49223;SDS011;35050;51.316;5.994;2022-08-19T14:46:04;1.88;;;1.67;;
49223;SDS011;35050;51.316;5.994;2022-08-19T14:48:30;1.52;;;1.42;;
49223;SDS011;35050;51.316;5.994;2022-08-19T14:50:56;2.38;;;1.80;;
49223;SDS011;35050;51.316;5.994;2022-08-19T14:53:22;1.75;;;1.65;;
49223;SDS011;35050;51.316;5.994;2022-08-19T14:55:47;1.65;;;1.50;;
49223;SDS011;35050;51.316;5.994;2022-08-19T14:58:13;1.52;;;1.42;;
49223;SDS011;35050;51.316;5.994;2022-08-19T15:00:40;1.65;;;1.55;;
49223;SDS011;35050;51.316;5.994;2022-08-19T15:03:05;1.40;;;1.30;;
49223;SDS011;35050;51.316;5.994;2022-08-19T15:05:31;1.70;;;1.60;;
49223;SDS011;35050;51.316;5.994;2022-08-19T15:07:56;1.42;;;1.33;;